createdAt,value
2023-09-22T00:01:32.440Z,15.79
2023-09-22T00:06:34.420Z,15.74
2023-09-22T00:11:36.267Z,15.64
2023-09-22T00:16:38.217Z,15.66
2023-09-22T00:21:40.176Z,15.68
2023-09-22T00:26:42.164Z,15.69
2023-09-22T00:31:44.279Z,15.72
2023-09-22T00:36:46.375Z,15.71
2023-09-22T00:41:48.385Z,15.72
2023-09-22T00:46:50.469Z,15.71
2023-09-22T00:51:52.421Z,15.65
2023-09-22T00:56:54.428Z,15.68
2023-09-22T01:01:56.540Z,15.72
2023-09-22T01:06:58.274Z,15.68
2023-09-22T01:12:00.190Z,15.81
2023-09-22T01:17:02.157Z,15.96
2023-09-22T01:22:04.176Z,16.03
2023-09-22T01:27:06.317Z,16.11
2023-09-22T01:32:08.058Z,16.05
2023-09-22T01:37:10.053Z,16.13
2023-09-22T01:42:11.910Z,16.12
2023-09-22T01:47:13.805Z,16.20
2023-09-22T01:52:15.721Z,16.17
2023-09-22T01:57:17.733Z,16.10
2023-09-22T02:02:19.511Z,15.96
2023-09-22T02:07:21.512Z,15.87
2023-09-22T02:12:23.211Z,15.72
2023-09-22T02:17:25.044Z,15.75
2023-09-22T02:22:27.030Z,15.70
2023-09-22T02:27:29.013Z,15.60
2023-09-22T02:32:30.867Z,15.51
2023-09-22T02:37:32.916Z,15.54
2023-09-22T02:42:35.144Z,15.55
2023-09-22T02:47:40.793Z,15.54
2023-09-22T02:52:42.844Z,15.48
2023-09-22T02:57:44.854Z,15.42
2023-09-22T03:02:47.006Z,15.48
2023-09-22T03:07:50.161Z,15.59
2023-09-22T03:12:52.360Z,15.72
2023-09-22T03:17:54.593Z,15.84
2023-09-22T03:22:56.785Z,15.95
2023-09-22T03:27:58.614Z,15.87
2023-09-22T03:33:00.694Z,16.00
2023-09-22T03:38:02.894Z,16.19
2023-09-22T03:43:04.707Z,16.19
2023-09-22T03:48:07.069Z,16.31
2023-09-22T03:53:09.052Z,16.31
2023-09-22T03:58:11.124Z,16.26
2023-09-22T04:03:13.468Z,16.35
2023-09-22T04:08:15.555Z,16.44
2023-09-22T04:13:17.312Z,16.51
2023-09-22T04:18:19.288Z,16.65
2023-09-22T04:23:21.071Z,16.71
2023-09-22T04:28:26.241Z,16.90
2023-09-22T04:33:28.411Z,17.00
2023-09-22T04:38:30.472Z,17.08
2023-09-22T04:43:32.231Z,17.06
2023-09-22T04:48:34.269Z,17.25
2023-09-22T04:53:37.582Z,17.37
2023-09-22T04:58:39.385Z,17.41
2023-09-22T05:03:41.764Z,17.51
2023-09-22T05:08:44.089Z,17.70
2023-09-22T05:13:46.243Z,17.91
2023-09-22T05:18:48.086Z,17.99
2023-09-22T05:23:50.094Z,18.19
2023-09-22T05:28:51.891Z,18.21
2023-09-22T05:33:53.923Z,18.26
2023-09-22T05:38:56.001Z,18.44
2023-09-22T05:43:57.717Z,18.38
2023-09-22T05:48:59.744Z,18.54
2023-09-22T05:54:01.703Z,18.73
2023-09-22T05:59:03.632Z,18.89
2023-09-22T06:04:06.041Z,19.05
2023-09-22T06:09:08.138Z,19.29
2023-09-22T06:14:10.110Z,19.71
2023-09-22T06:19:12.201Z,26.11
2023-09-22T06:24:14.167Z,30.85
2023-09-22T06:29:16.178Z,33.68
2023-09-22T06:34:18.094Z,35.48
2023-09-22T06:39:20.088Z,36.09
2023-09-22T06:44:22.152Z,34.57
2023-09-22T06:49:24.065Z,36.71
2023-09-22T06:54:26.090Z,39.58
2023-09-22T06:59:28.036Z,39.89
2023-09-22T07:04:29.978Z,41.52
2023-09-22T07:09:32.020Z,41.74
2023-09-22T07:14:34.060Z,42.88
2023-09-22T07:19:39.607Z,43.17
2023-09-22T07:24:41.550Z,43.49
2023-09-22T07:29:43.770Z,42.06
2023-09-22T07:34:45.917Z,37.41
2023-09-22T07:39:47.951Z,31.18
2023-09-22T07:44:49.915Z,28.38
2023-09-22T07:49:51.897Z,26.76
2023-09-22T07:54:53.848Z,25.72
2023-09-22T07:59:55.844Z,24.85
2023-09-22T08:04:57.797Z,24.54
2023-09-22T08:09:59.856Z,24.19
2023-09-22T08:15:01.869Z,24.02
2023-09-22T08:20:04.824Z,24.00
2023-09-22T08:25:08.698Z,23.89
2023-09-22T08:30:11.946Z,23.82
2023-09-22T08:35:14.815Z,23.96
2023-09-22T08:40:17.447Z,23.70
2023-09-22T08:45:19.667Z,23.52
2023-09-22T08:50:21.777Z,23.50
2023-09-22T08:55:23.802Z,23.60
2023-09-22T09:00:27.356Z,23.48
2023-09-22T09:05:30.808Z,23.27
2023-09-22T09:10:36.063Z,23.34
2023-09-22T09:15:48.618Z,23.43
2023-09-22T09:21:12.808Z,23.52
2023-09-22T09:26:14.819Z,23.37
2023-09-22T09:31:16.877Z,23.58
2023-09-22T09:36:18.895Z,23.66
2023-09-22T09:41:20.945Z,23.56
2023-09-22T09:46:23.066Z,23.74
2023-09-22T09:51:25.121Z,23.80
2023-09-22T09:56:27.147Z,23.72
2023-09-22T10:01:29.207Z,23.82
2023-09-22T10:06:38.145Z,23.85
2023-09-22T10:11:40.594Z,23.81
2023-09-22T10:16:42.690Z,23.91
2023-09-22T10:21:44.773Z,23.95
2023-09-22T10:27:10.711Z,23.92
2023-09-22T10:32:18.847Z,23.92
2023-09-22T10:37:26.366Z,23.89
2023-09-22T10:42:28.648Z,23.94
2023-09-22T10:47:40.538Z,23.96
2023-09-22T10:52:53.334Z,24.08
2023-09-22T10:57:56.230Z,24.02
2023-09-22T11:03:13.705Z,24.01
2023-09-22T11:08:16.551Z,23.93
2023-09-22T11:13:18.468Z,23.91
2023-09-22T11:18:35.789Z,23.90
2023-09-22T11:23:39.063Z,23.92
2023-09-22T11:28:42.016Z,23.94
2023-09-22T11:33:45.000Z,24.02
2023-09-22T11:38:54.135Z,23.98
2023-09-22T11:43:56.194Z,24.05
2023-09-22T11:49:07.400Z,24.11
2023-09-22T11:54:09.764Z,24.12
2023-09-22T11:59:19.444Z,24.08
2023-09-22T12:04:21.869Z,24.01
2023-09-22T12:09:23.952Z,24.02
2023-09-22T12:14:25.903Z,24.07
2023-09-22T12:19:28.056Z,23.98
2023-09-22T12:24:30.112Z,24.04
2023-09-22T12:29:32.309Z,24.04
2023-09-22T12:34:34.309Z,23.93
2023-09-22T12:39:36.304Z,23.94
2023-09-22T12:44:38.240Z,23.92
2023-09-22T12:49:40.283Z,23.90
2023-09-22T12:54:42.340Z,23.94
2023-09-22T12:59:44.399Z,23.99
2023-09-22T13:04:48.095Z,23.98
2023-09-22T13:09:52.963Z,23.90
2023-09-22T13:14:55.268Z,23.88
2023-09-22T13:19:57.427Z,24.05
2023-09-22T13:24:59.464Z,23.99
2023-09-22T13:30:01.530Z,24.27
2023-09-22T13:35:06.209Z,24.35
2023-09-22T13:40:08.962Z,24.26
2023-09-22T13:45:11.189Z,24.02
2023-09-22T13:50:13.327Z,24.09
2023-09-22T13:55:15.342Z,23.84
2023-09-22T14:00:17.463Z,23.87
2023-09-22T14:05:19.499Z,23.95
2023-09-22T14:10:21.716Z,23.74
2023-09-22T14:15:23.760Z,23.62
2023-09-22T14:20:25.740Z,23.53
2023-09-22T14:25:27.875Z,23.35
2023-09-22T14:30:29.984Z,23.21
2023-09-22T14:35:31.988Z,22.97
2023-09-22T14:40:34.863Z,22.90
2023-09-22T14:45:37.504Z,22.73
2023-09-22T14:50:39.624Z,22.56
2023-09-22T14:55:42.242Z,22.45
2023-09-22T15:00:44.245Z,22.35
2023-09-22T15:05:46.382Z,22.26
2023-09-22T15:10:52.262Z,22.10
2023-09-22T15:15:54.145Z,21.97
2023-09-22T15:21:03.891Z,21.86
2023-09-22T15:26:06.897Z,21.77
2023-09-22T15:31:10.096Z,21.63
2023-09-22T15:36:12.466Z,21.56
2023-09-22T15:41:15.636Z,21.48
2023-09-22T15:46:17.794Z,21.34
2023-09-22T15:51:19.848Z,21.25
2023-09-22T15:56:22.002Z,21.18
2023-09-22T16:01:24.146Z,21.13
2023-09-22T16:06:26.207Z,21.05
2023-09-22T16:11:28.154Z,21.00
2023-09-22T16:16:30.276Z,20.92
2023-09-22T16:21:32.401Z,20.90
2023-09-22T16:26:34.451Z,20.88
2023-09-22T16:31:37.064Z,20.83
2023-09-22T16:36:39.235Z,20.74
2023-09-22T16:41:41.364Z,20.73
2023-09-22T16:46:43.453Z,20.67
2023-09-22T16:51:45.593Z,20.69
2023-09-22T16:56:47.667Z,20.60
2023-09-22T17:01:49.728Z,20.63
2023-09-22T17:06:51.786Z,20.57
2023-09-22T17:11:53.819Z,20.51
2023-09-22T17:16:56.255Z,20.50
2023-09-22T17:21:58.276Z,20.41
2023-09-22T17:27:00.249Z,20.39
2023-09-22T17:32:01.987Z,20.27
2023-09-22T17:37:04.016Z,20.26
2023-09-22T17:42:05.924Z,20.26
2023-09-22T17:47:07.816Z,20.18
2023-09-22T17:52:09.679Z,20.19
2023-09-22T17:57:11.428Z,20.05
2023-09-22T18:02:13.636Z,20.01
2023-09-22T18:07:15.701Z,19.91
2023-09-22T18:12:17.413Z,19.85
2023-09-22T18:17:19.878Z,19.85
2023-09-22T18:22:21.922Z,19.78
2023-09-22T18:27:24.239Z,19.70
2023-09-22T18:32:26.213Z,19.72
2023-09-22T18:37:28.556Z,19.69
2023-09-22T18:42:30.619Z,19.56
2023-09-22T18:47:32.699Z,19.53
2023-09-22T18:52:34.997Z,19.53
2023-09-22T18:57:37.000Z,19.50
2023-09-22T19:02:38.846Z,19.33
2023-09-22T19:07:41.698Z,19.35
2023-09-22T19:12:43.766Z,19.34
2023-09-22T19:17:46.050Z,19.33
2023-09-22T19:22:48.250Z,19.25
2023-09-22T19:27:50.515Z,19.25
2023-09-22T19:32:52.555Z,19.26
2023-09-22T19:37:54.665Z,19.22
2023-09-22T19:42:56.700Z,19.24
2023-09-22T19:47:58.535Z,19.15
2023-09-22T19:53:00.645Z,19.17
2023-09-22T19:58:03.270Z,19.15
2023-09-22T20:03:05.490Z,19.10
2023-09-22T20:08:07.581Z,19.14
2023-09-22T20:13:10.035Z,19.18
2023-09-22T20:18:12.079Z,19.18
2023-09-22T20:23:14.113Z,19.13
2023-09-22T20:28:15.865Z,18.97
2023-09-22T20:33:18.012Z,18.94
2023-09-22T20:38:20.644Z,18.86
2023-09-22T20:43:24.841Z,18.79
2023-09-22T20:48:26.842Z,18.78
2023-09-22T20:53:28.704Z,18.58
2023-09-22T20:58:30.968Z,18.60
2023-09-22T21:03:33.370Z,18.55
2023-09-22T21:08:35.556Z,18.52
2023-09-22T21:13:37.385Z,18.35
2023-09-22T21:18:39.408Z,18.30
2023-09-22T21:23:41.200Z,18.17
2023-09-22T21:28:43.349Z,18.17
2023-09-22T21:33:45.472Z,18.10
2023-09-22T21:38:47.517Z,17.96
2023-09-22T21:43:49.730Z,17.95
2023-09-22T21:48:51.884Z,18.01
2023-09-22T21:53:53.635Z,17.86
2023-09-22T21:58:55.620Z,17.86
2023-09-22T22:03:57.707Z,17.67
2023-09-22T22:08:59.657Z,17.67
2023-09-22T22:14:01.623Z,17.69
2023-09-22T22:19:03.613Z,17.68
2023-09-22T22:24:05.810Z,17.63
2023-09-22T22:29:07.867Z,17.63
2023-09-22T22:34:09.991Z,17.54
2023-09-22T22:39:11.975Z,17.51
2023-09-22T22:44:14.087Z,17.41
2023-09-22T22:49:16.238Z,17.42
2023-09-22T22:54:18.065Z,17.33
2023-09-22T22:59:20.365Z,17.34
2023-09-22T23:04:22.430Z,17.43
2023-09-22T23:09:24.152Z,17.35
2023-09-22T23:14:26.299Z,17.39
2023-09-22T23:19:28.395Z,17.39
2023-09-22T23:24:30.330Z,17.29
2023-09-22T23:29:32.397Z,17.23
2023-09-22T23:34:34.124Z,17.09
2023-09-22T23:39:36.075Z,17.10
2023-09-22T23:44:38.024Z,17.02
2023-09-22T23:49:40.005Z,16.99
2023-09-22T23:54:41.952Z,16.89
2023-09-22T23:59:44.417Z,16.82
